Algarkirk, United Kingdom
Current Conditions -  °F | °C
As of 1:50 PM on Friday 19 Dec 2014 (Local Time) from EGXC Reporting Station
Broken Clouds Broken Clouds  
Wind Chill: 41°   Ceiling: 4000
Heat Index: 48°   Visibility: 6mi
Dew Point: 39°   Wind: 22mph
Humidity: 71%   Direction: 260°W
Pressure: 29.88"   Gusts: NA
Location:  52.93°N, 0.03°W
Report Text: EGXC 191350Z 26019KT 9999 BKN040 09/04 Q1012 BLU NOSIG
Loading
Personal Weather Stations






























Interactive Weather Map New forecast layout! Learn more

10-Day Weather Forecast

Advertisements
Track Severe Weather on mobile